Renton, United Kingdom
Current Conditions -  °F | °C
As of 1:50 PM on Wednesday 28 Jan 2015 (Local Time) from EGPF Reporting Station
Light Rain Light Rain  
Wind Chill: 28°   Ceiling: 2600
Heat Index: 37°   Visibility: 6mi
Dew Point: 34°   Wind: 17mph
Humidity: 87%   Direction: 270°W
Pressure: 29.23"   Gusts: NA
Location:  55.97°N, 4.58°W
Report Text: EGPF 281350Z AUTO 27015KT 9999 -RA BKN026/// //////TCU 03/01 Q0990
Loading
Personal Weather Stations






























Interactive Weather Map New forecast layout! Learn more

10-Day Weather Forecast

Advertisements
Track Severe Weather on mobile